sensor_id;sensor_type;location;lat;lon;timestamp;P1;durP1;ratioP1;P2;durP2;ratioP2
35126;SDS011;21300;52.006;5.798;2022-10-20T00:00:49;8.15;;;4.60;;
35126;SDS011;21300;52.006;5.798;2022-10-20T00:03:15;6.93;;;3.92;;
35126;SDS011;21300;52.006;5.798;2022-10-20T00:05:40;10.27;;;4.40;;
35126;SDS011;21300;52.006;5.798;2022-10-20T00:08:06;6.82;;;4.50;;
35126;SDS011;21300;52.006;5.798;2022-10-20T00:10:31;10.93;;;4.55;;
35126;SDS011;21300;52.006;5.798;2022-10-20T00:12:58;10.50;;;5.20;;
35126;SDS011;21300;52.006;5.798;2022-10-20T00:15:23;9.63;;;5.20;;
35126;SDS011;21300;52.006;5.798;2022-10-20T00:17:49;12.15;;;5.13;;
35126;SDS011;21300;52.006;5.798;2022-10-20T00:20:14;8.57;;;4.97;;
35126;SDS011;21300;52.006;5.798;2022-10-20T00:22:40;8.18;;;5.20;;
35126;SDS011;21300;52.006;5.798;2022-10-20T00:25:05;9.98;;;5.13;;
35126;SDS011;21300;52.006;5.798;2022-10-20T00:27:31;12.40;;;5.28;;
35126;SDS011;21300;52.006;5.798;2022-10-20T00:29:57;7.75;;;5.15;;
35126;SDS011;21300;52.006;5.798;2022-10-20T00:32:22;17.52;;;5.07;;
35126;SDS011;21300;52.006;5.798;2022-10-20T00:34:48;9.38;;;5.15;;
35126;SDS011;21300;52.006;5.798;2022-10-20T00:37:13;8.85;;;5.43;;
35126;SDS011;21300;52.006;5.798;2022-10-20T00:39:39;7.55;;;5.03;;
35126;SDS011;21300;52.006;5.798;2022-10-20T00:42:04;11.82;;;5.68;;
35126;SDS011;21300;52.006;5.798;2022-10-20T00:47:21;17.85;;;5.82;;
35126;SDS011;21300;52.006;5.798;2022-10-20T00:49:59;7.97;;;5.28;;
35126;SDS011;21300;52.006;5.798;2022-10-20T00:52:30;12.18;;;6.03;;
35126;SDS011;21300;52.006;5.798;2022-10-20T00:54:55;10.38;;;5.25;;
35126;SDS011;21300;52.006;5.798;2022-10-20T00:57:23;8.07;;;5.30;;
35126;SDS011;21300;52.006;5.798;2022-10-20T00:59:49;9.43;;;6.47;;
35126;SDS011;21300;52.006;5.798;2022-10-20T01:02:15;10.25;;;5.55;;
35126;SDS011;21300;52.006;5.798;2022-10-20T01:04:40;9.50;;;6.38;;
35126;SDS011;21300;52.006;5.798;2022-10-20T01:10:28;10.50;;;5.63;;
35126;SDS011;21300;52.006;5.798;2022-10-20T01:13:19;10.70;;;5.95;;
35126;SDS011;21300;52.006;5.798;2022-10-20T01:18:52;11.13;;;6.15;;
35126;SDS011;21300;52.006;5.798;2022-10-20T01:21:27;10.65;;;5.82;;
35126;SDS011;21300;52.006;5.798;2022-10-20T01:32:41;10.10;;;6.40;;
35126;SDS011;21300;52.006;5.798;2022-10-20T01:35:24;12.00;;;6.40;;
35126;SDS011;21300;52.006;5.798;2022-10-20T01:43:16;10.50;;;6.65;;
35126;SDS011;21300;52.006;5.798;2022-10-20T01:45:45;12.23;;;6.70;;
35126;SDS011;21300;52.006;5.798;2022-10-20T01:48:12;13.32;;;6.53;;
35126;SDS011;21300;52.006;5.798;2022-10-20T01:50:40;12.50;;;6.82;;
35126;SDS011;21300;52.006;5.798;2022-10-20T01:53:07;10.88;;;7.00;;
35126;SDS011;21300;52.006;5.798;2022-10-20T01:55:33;13.07;;;6.45;;
35126;SDS011;21300;52.006;5.798;2022-10-20T02:00:31;9.30;;;6.18;;
35126;SDS011;21300;52.006;5.798;2022-10-20T02:03:10;14.02;;;6.90;;
35126;SDS011;21300;52.006;5.798;2022-10-20T02:08:42;11.20;;;6.43;;
35126;SDS011;21300;52.006;5.798;2022-10-20T02:11:30;8.35;;;6.18;;
35126;SDS011;21300;52.006;5.798;2022-10-20T02:14:04;10.50;;;7.07;;
35126;SDS011;21300;52.006;5.798;2022-10-20T02:16:35;12.27;;;6.80;;
35126;SDS011;21300;52.006;5.798;2022-10-20T02:19:05;14.55;;;7.20;;
35126;SDS011;21300;52.006;5.798;2022-10-20T02:21:33;11.70;;;7.35;;
35126;SDS011;21300;52.006;5.798;2022-10-20T02:23:59;13.52;;;6.80;;
35126;SDS011;21300;52.006;5.798;2022-10-20T02:26:28;11.30;;;5.60;;
35126;SDS011;21300;52.006;5.798;2022-10-20T02:28:57;8.35;;;6.55;;
35126;SDS011;21300;52.006;5.798;2022-10-20T02:31:25;10.27;;;6.47;;
35126;SDS011;21300;52.006;5.798;2022-10-20T02:33:52;10.38;;;6.63;;
35126;SDS011;21300;52.006;5.798;2022-10-20T02:36:20;10.95;;;7.07;;
35126;SDS011;21300;52.006;5.798;2022-10-20T02:38:51;10.52;;;6.43;;
35126;SDS011;21300;52.006;5.798;2022-10-20T02:41:17;9.70;;;6.43;;
35126;SDS011;21300;52.006;5.798;2022-10-20T02:43:42;14.73;;;7.03;;
35126;SDS011;21300;52.006;5.798;2022-10-20T02:46:08;12.07;;;6.97;;
35126;SDS011;21300;52.006;5.798;2022-10-20T02:48:33;11.43;;;6.78;;
35126;SDS011;21300;52.006;5.798;2022-10-20T02:50:59;13.27;;;6.80;;
35126;SDS011;21300;52.006;5.798;2022-10-20T02:53:25;7.50;;;6.05;;
35126;SDS011;21300;52.006;5.798;2022-10-20T02:56:09;11.23;;;7.22;;
35126;SDS011;21300;52.006;5.798;2022-10-20T02:58:35;9.63;;;7.05;;
35126;SDS011;21300;52.006;5.798;2022-10-20T03:01:01;10.43;;;7.03;;
35126;SDS011;21300;52.006;5.798;2022-10-20T03:03:27;11.60;;;7.18;;
35126;SDS011;21300;52.006;5.798;2022-10-20T03:05:53;10.60;;;6.65;;
35126;SDS011;21300;52.006;5.798;2022-10-20T03:08:18;11.05;;;6.82;;
35126;SDS011;21300;52.006;5.798;2022-10-20T03:10:44;8.57;;;6.97;;
35126;SDS011;21300;52.006;5.798;2022-10-20T03:13:09;18.33;;;7.22;;
35126;SDS011;21300;52.006;5.798;2022-10-20T03:15:36;13.35;;;7.07;;
35126;SDS011;21300;52.006;5.798;2022-10-20T03:18:02;12.65;;;6.78;;
35126;SDS011;21300;52.006;5.798;2022-10-20T03:20:27;11.18;;;6.43;;
35126;SDS011;21300;52.006;5.798;2022-10-20T03:22:53;12.52;;;7.30;;
35126;SDS011;21300;52.006;5.798;2022-10-20T03:25:18;15.77;;;7.05;;
35126;SDS011;21300;52.006;5.798;2022-10-20T03:27:44;11.27;;;6.47;;
35126;SDS011;21300;52.006;5.798;2022-10-20T03:30:09;8.80;;;6.15;;
35126;SDS011;21300;52.006;5.798;2022-10-20T03:32:35;12.27;;;7.40;;
35126;SDS011;21300;52.006;5.798;2022-10-20T03:35:01;9.88;;;7.07;;
35126;SDS011;21300;52.006;5.798;2022-10-20T03:37:26;10.68;;;6.40;;
35126;SDS011;21300;52.006;5.798;2022-10-20T03:39:52;12.63;;;7.97;;
35126;SDS011;21300;52.006;5.798;2022-10-20T03:42:17;11.25;;;7.10;;
35126;SDS011;21300;52.006;5.798;2022-10-20T03:44:43;14.15;;;7.60;;
35126;SDS011;21300;52.006;5.798;2022-10-20T03:47:09;11.95;;;7.38;;
35126;SDS011;21300;52.006;5.798;2022-10-20T03:49:36;10.60;;;7.43;;
35126;SDS011;21300;52.006;5.798;2022-10-20T03:52:02;11.32;;;7.45;;
35126;SDS011;21300;52.006;5.798;2022-10-20T03:54:28;10.85;;;7.15;;
35126;SDS011;21300;52.006;5.798;2022-10-20T03:56:53;10.73;;;7.35;;
35126;SDS011;21300;52.006;5.798;2022-10-20T03:59:19;10.65;;;6.50;;
35126;SDS011;21300;52.006;5.798;2022-10-20T04:01:45;12.48;;;7.72;;
35126;SDS011;21300;52.006;5.798;2022-10-20T04:04:11;11.40;;;7.03;;
35126;SDS011;21300;52.006;5.798;2022-10-20T04:06:36;15.48;;;7.40;;
35126;SDS011;21300;52.006;5.798;2022-10-20T04:09:02;12.32;;;7.80;;
35126;SDS011;21300;52.006;5.798;2022-10-20T04:11:29;13.68;;;8.20;;
35126;SDS011;21300;52.006;5.798;2022-10-20T04:13:57;14.63;;;8.40;;
35126;SDS011;21300;52.006;5.798;2022-10-20T04:16:23;14.00;;;8.20;;
35126;SDS011;21300;52.006;5.798;2022-10-20T04:18:50;13.88;;;7.68;;
35126;SDS011;21300;52.006;5.798;2022-10-20T04:21:16;13.38;;;8.05;;
35126;SDS011;21300;52.006;5.798;2022-10-20T04:23:42;11.98;;;7.82;;
35126;SDS011;21300;52.006;5.798;2022-10-20T04:26:12;12.07;;;7.65;;
35126;SDS011;21300;52.006;5.798;2022-10-20T04:28:39;11.52;;;7.50;;
35126;SDS011;21300;52.006;5.798;2022-10-20T04:31:05;14.15;;;8.65;;
35126;SDS011;21300;52.006;5.798;2022-10-20T04:33:31;11.77;;;7.43;;
35126;SDS011;21300;52.006;5.798;2022-10-20T04:35:58;13.88;;;8.25;;
35126;SDS011;21300;52.006;5.798;2022-10-20T04:38:24;14.90;;;8.88;;
35126;SDS011;21300;52.006;5.798;2022-10-20T04:40:57;12.82;;;7.75;;
35126;SDS011;21300;52.006;5.798;2022-10-20T04:43:24;13.73;;;8.25;;
35126;SDS011;21300;52.006;5.798;2022-10-20T04:45:50;13.30;;;7.38;;
35126;SDS011;21300;52.006;5.798;2022-10-20T04:48:18;13.55;;;8.73;;
35126;SDS011;21300;52.006;5.798;2022-10-20T04:50:43;11.27;;;8.15;;
35126;SDS011;21300;52.006;5.798;2022-10-20T04:53:09;13.93;;;8.75;;
35126;SDS011;21300;52.006;5.798;2022-10-20T04:55:35;15.95;;;8.52;;
35126;SDS011;21300;52.006;5.798;2022-10-20T04:58:00;12.10;;;8.20;;
35126;SDS011;21300;52.006;5.798;2022-10-20T05:00:26;13.82;;;8.95;;
35126;SDS011;21300;52.006;5.798;2022-10-20T05:02:51;15.43;;;9.27;;
35126;SDS011;21300;52.006;5.798;2022-10-20T05:05:18;12.10;;;7.25;;
35126;SDS011;21300;52.006;5.798;2022-10-20T05:07:44;13.68;;;9.35;;
35126;SDS011;21300;52.006;5.798;2022-10-20T05:10:09;15.35;;;9.07;;
35126;SDS011;21300;52.006;5.798;2022-10-20T05:12:35;16.08;;;9.68;;
35126;SDS011;21300;52.006;5.798;2022-10-20T05:15:00;11.63;;;8.82;;
35126;SDS011;21300;52.006;5.798;2022-10-20T05:17:27;16.42;;;8.38;;
35126;SDS011;21300;52.006;5.798;2022-10-20T05:19:54;15.32;;;9.20;;
35126;SDS011;21300;52.006;5.798;2022-10-20T05:22:19;12.95;;;7.57;;
35126;SDS011;21300;52.006;5.798;2022-10-20T05:24:45;12.63;;;8.23;;
35126;SDS011;21300;52.006;5.798;2022-10-20T05:27:10;12.13;;;8.95;;
35126;SDS011;21300;52.006;5.798;2022-10-20T05:29:36;13.73;;;9.32;;
35126;SDS011;21300;52.006;5.798;2022-10-20T05:32:02;15.27;;;9.43;;
35126;SDS011;21300;52.006;5.798;2022-10-20T05:34:27;17.48;;;8.80;;
35126;SDS011;21300;52.006;5.798;2022-10-20T05:36:53;17.85;;;9.30;;
35126;SDS011;21300;52.006;5.798;2022-10-20T05:39:18;15.77;;;9.15;;
35126;SDS011;21300;52.006;5.798;2022-10-20T05:41:44;17.95;;;9.43;;
35126;SDS011;21300;52.006;5.798;2022-10-20T05:44:11;15.65;;;9.52;;
35126;SDS011;21300;52.006;5.798;2022-10-20T05:46:37;15.57;;;10.25;;
35126;SDS011;21300;52.006;5.798;2022-10-20T05:49:05;15.82;;;9.80;;
35126;SDS011;21300;52.006;5.798;2022-10-20T05:51:35;15.00;;;9.60;;
35126;SDS011;21300;52.006;5.798;2022-10-20T05:54:00;13.52;;;9.10;;
35126;SDS011;21300;52.006;5.798;2022-10-20T05:56:27;18.25;;;10.00;;
35126;SDS011;21300;52.006;5.798;2022-10-20T05:58:53;19.08;;;10.48;;
35126;SDS011;21300;52.006;5.798;2022-10-20T06:01:20;14.77;;;9.35;;
35126;SDS011;21300;52.006;5.798;2022-10-20T06:06:24;13.15;;;9.07;;
35126;SDS011;21300;52.006;5.798;2022-10-20T06:08:51;12.70;;;9.25;;
35126;SDS011;21300;52.006;5.798;2022-10-20T06:11:17;15.15;;;9.38;;
35126;SDS011;21300;52.006;5.798;2022-10-20T06:13:44;16.83;;;9.88;;
35126;SDS011;21300;52.006;5.798;2022-10-20T06:16:10;16.55;;;10.77;;
35126;SDS011;21300;52.006;5.798;2022-10-20T06:18:41;14.15;;;9.82;;
35126;SDS011;21300;52.006;5.798;2022-10-20T06:21:12;14.65;;;8.95;;
35126;SDS011;21300;52.006;5.798;2022-10-20T06:23:39;15.75;;;9.93;;
35126;SDS011;21300;52.006;5.798;2022-10-20T06:26:15;16.08;;;9.98;;
35126;SDS011;21300;52.006;5.798;2022-10-20T06:28:48;15.07;;;9.55;;
35126;SDS011;21300;52.006;5.798;2022-10-20T06:31:18;13.75;;;9.68;;
35126;SDS011;21300;52.006;5.798;2022-10-20T06:33:46;16.70;;;9.38;;
35126;SDS011;21300;52.006;5.798;2022-10-20T06:36:12;19.58;;;10.25;;
35126;SDS011;21300;52.006;5.798;2022-10-20T06:38:38;17.65;;;9.80;;
35126;SDS011;21300;52.006;5.798;2022-10-20T06:41:23;15.27;;;9.60;;
35126;SDS011;21300;52.006;5.798;2022-10-20T06:43:51;15.15;;;10.50;;
35126;SDS011;21300;52.006;5.798;2022-10-20T06:46:23;13.88;;;10.10;;
35126;SDS011;21300;52.006;5.798;2022-10-20T06:48:49;13.95;;;10.18;;
35126;SDS011;21300;52.006;5.798;2022-10-20T06:51:16;15.13;;;9.85;;
35126;SDS011;21300;52.006;5.798;2022-10-20T06:53:49;14.10;;;10.57;;
35126;SDS011;21300;52.006;5.798;2022-10-20T06:56:19;15.23;;;10.57;;
35126;SDS011;21300;52.006;5.798;2022-10-20T06:58:47;18.40;;;10.38;;
35126;SDS011;21300;52.006;5.798;2022-10-20T07:01:21;15.15;;;10.27;;
35126;SDS011;21300;52.006;5.798;2022-10-20T07:03:48;15.70;;;10.35;;
35126;SDS011;21300;52.006;5.798;2022-10-20T07:06:16;14.82;;;10.77;;
35126;SDS011;21300;52.006;5.798;2022-10-20T07:08:43;15.48;;;10.32;;
35126;SDS011;21300;52.006;5.798;2022-10-20T07:11:13;19.23;;;11.10;;
35126;SDS011;21300;52.006;5.798;2022-10-20T07:13:40;18.27;;;10.05;;
35126;SDS011;21300;52.006;5.798;2022-10-20T07:16:07;15.93;;;10.38;;
35126;SDS011;21300;52.006;5.798;2022-10-20T07:18:35;18.48;;;11.18;;
35126;SDS011;21300;52.006;5.798;2022-10-20T07:21:02;17.25;;;10.65;;
35126;SDS011;21300;52.006;5.798;2022-10-20T07:23:30;18.05;;;10.73;;
35126;SDS011;21300;52.006;5.798;2022-10-20T07:26:03;18.33;;;11.18;;
35126;SDS011;21300;52.006;5.798;2022-10-20T07:28:31;17.67;;;10.93;;
35126;SDS011;21300;52.006;5.798;2022-10-20T07:31:01;15.32;;;10.65;;
35126;SDS011;21300;52.006;5.798;2022-10-20T07:33:28;13.88;;;10.30;;
35126;SDS011;21300;52.006;5.798;2022-10-20T07:35:54;15.93;;;11.32;;
35126;SDS011;21300;52.006;5.798;2022-10-20T07:38:19;16.45;;;10.40;;
35126;SDS011;21300;52.006;5.798;2022-10-20T07:40:45;18.67;;;11.50;;
35126;SDS011;21300;52.006;5.798;2022-10-20T07:43:10;14.85;;;11.05;;
35126;SDS011;21300;52.006;5.798;2022-10-20T07:45:36;14.95;;;10.35;;
35126;SDS011;21300;52.006;5.798;2022-10-20T07:48:01;17.52;;;11.88;;
35126;SDS011;21300;52.006;5.798;2022-10-20T07:50:28;16.15;;;11.20;;
35126;SDS011;21300;52.006;5.798;2022-10-20T07:52:54;19.33;;;10.82;;
35126;SDS011;21300;52.006;5.798;2022-10-20T07:55:19;17.42;;;11.82;;
35126;SDS011;21300;52.006;5.798;2022-10-20T07:57:45;16.08;;;10.30;;
35126;SDS011;21300;52.006;5.798;2022-10-20T08:00:11;22.42;;;11.00;;
35126;SDS011;21300;52.006;5.798;2022-10-20T08:02:37;19.67;;;11.88;;
35126;SDS011;21300;52.006;5.798;2022-10-20T08:05:05;18.50;;;11.25;;
35126;SDS011;21300;52.006;5.798;2022-10-20T08:07:31;18.10;;;11.15;;
35126;SDS011;21300;52.006;5.798;2022-10-20T08:09:56;17.13;;;11.00;;
35126;SDS011;21300;52.006;5.798;2022-10-20T08:12:22;16.38;;;10.60;;
35126;SDS011;21300;52.006;5.798;2022-10-20T08:14:48;19.05;;;11.02;;
35126;SDS011;21300;52.006;5.798;2022-10-20T08:17:13;16.45;;;10.88;;
35126;SDS011;21300;52.006;5.798;2022-10-20T08:19:39;15.23;;;10.63;;
35126;SDS011;21300;52.006;5.798;2022-10-20T08:22:04;15.52;;;11.82;;
35126;SDS011;21300;52.006;5.798;2022-10-20T08:24:30;18.65;;;11.25;;
35126;SDS011;21300;52.006;5.798;2022-10-20T08:26:55;18.50;;;11.77;;
35126;SDS011;21300;52.006;5.798;2022-10-20T08:29:21;15.88;;;10.63;;
35126;SDS011;21300;52.006;5.798;2022-10-20T08:31:47;16.27;;;10.30;;
35126;SDS011;21300;52.006;5.798;2022-10-20T08:34:12;19.20;;;11.90;;
35126;SDS011;21300;52.006;5.798;2022-10-20T08:36:38;17.77;;;12.27;;
35126;SDS011;21300;52.006;5.798;2022-10-20T08:39:03;17.30;;;11.18;;
35126;SDS011;21300;52.006;5.798;2022-10-20T08:41:30;20.52;;;12.75;;
35126;SDS011;21300;52.006;5.798;2022-10-20T08:43:58;20.02;;;11.98;;
35126;SDS011;21300;52.006;5.798;2022-10-20T08:46:29;27.08;;;12.32;;
35126;SDS011;21300;52.006;5.798;2022-10-20T08:48:57;16.52;;;9.70;;
35126;SDS011;21300;52.006;5.798;2022-10-20T08:51:24;17.88;;;11.20;;
35126;SDS011;21300;52.006;5.798;2022-10-20T08:54:02;19.60;;;11.70;;
35126;SDS011;21300;52.006;5.798;2022-10-20T08:56:30;18.55;;;11.20;;
35126;SDS011;21300;52.006;5.798;2022-10-20T08:58:58;18.77;;;11.43;;
35126;SDS011;21300;52.006;5.798;2022-10-20T09:01:26;19.95;;;12.90;;
35126;SDS011;21300;52.006;5.798;2022-10-20T09:04:02;21.70;;;13.32;;
35126;SDS011;21300;52.006;5.798;2022-10-20T09:06:36;15.93;;;11.63;;
35126;SDS011;21300;52.006;5.798;2022-10-20T09:09:05;18.55;;;12.45;;
35126;SDS011;21300;52.006;5.798;2022-10-20T09:11:33;19.08;;;12.70;;
35126;SDS011;21300;52.006;5.798;2022-10-20T09:14:04;16.95;;;11.50;;
35126;SDS011;21300;52.006;5.798;2022-10-20T09:16:32;24.02;;;14.80;;
35126;SDS011;21300;52.006;5.798;2022-10-20T09:19:03;20.52;;;12.48;;
35126;SDS011;21300;52.006;5.798;2022-10-20T09:21:39;17.90;;;11.30;;
35126;SDS011;21300;52.006;5.798;2022-10-20T09:24:05;19.95;;;13.30;;
35126;SDS011;21300;52.006;5.798;2022-10-20T09:26:35;20.17;;;14.82;;
35126;SDS011;21300;52.006;5.798;2022-10-20T09:29:12;23.15;;;13.27;;
35126;SDS011;21300;52.006;5.798;2022-10-20T09:31:43;20.02;;;13.15;;
35126;SDS011;21300;52.006;5.798;2022-10-20T09:34:24;23.75;;;13.65;;
35126;SDS011;21300;52.006;5.798;2022-10-20T09:37:12;18.63;;;13.63;;
35126;SDS011;21300;52.006;5.798;2022-10-20T09:39:41;19.50;;;12.95;;
35126;SDS011;21300;52.006;5.798;2022-10-20T09:42:11;20.10;;;13.27;;
35126;SDS011;21300;52.006;5.798;2022-10-20T09:44:46;20.13;;;12.02;;
35126;SDS011;21300;52.006;5.798;2022-10-20T09:47:17;20.63;;;14.45;;
35126;SDS011;21300;52.006;5.798;2022-10-20T09:49:45;22.02;;;13.25;;
35126;SDS011;21300;52.006;5.798;2022-10-20T09:52:19;21.65;;;13.77;;
35126;SDS011;21300;52.006;5.798;2022-10-20T09:54:48;21.73;;;13.63;;
35126;SDS011;21300;52.006;5.798;2022-10-20T09:57:17;21.83;;;13.98;;
35126;SDS011;21300;52.006;5.798;2022-10-20T09:59:44;22.38;;;14.70;;
35126;SDS011;21300;52.006;5.798;2022-10-20T10:04:41;25.50;;;13.63;;
35126;SDS011;21300;52.006;5.798;2022-10-20T10:09:59;21.88;;;13.85;;
35126;SDS011;21300;52.006;5.798;2022-10-20T10:12:27;26.08;;;13.98;;
35126;SDS011;21300;52.006;5.798;2022-10-20T10:14:55;20.83;;;15.23;;
35126;SDS011;21300;52.006;5.798;2022-10-20T10:17:28;25.05;;;13.80;;
35126;SDS011;21300;52.006;5.798;2022-10-20T10:19:55;24.17;;;14.30;;
35126;SDS011;21300;52.006;5.798;2022-10-20T10:22:20;22.98;;;14.20;;
35126;SDS011;21300;52.006;5.798;2022-10-20T10:24:46;19.95;;;13.88;;
35126;SDS011;21300;52.006;5.798;2022-10-20T10:27:21;23.00;;;14.50;;
35126;SDS011;21300;52.006;5.798;2022-10-20T10:29:49;21.00;;;15.00;;
35126;SDS011;21300;52.006;5.798;2022-10-20T10:32:16;22.65;;;14.60;;
35126;SDS011;21300;52.006;5.798;2022-10-20T10:37:31;18.58;;;12.07;;
35126;SDS011;21300;52.006;5.798;2022-10-20T10:39:58;22.92;;;14.88;;
35126;SDS011;21300;52.006;5.798;2022-10-20T10:45:50;25.95;;;15.32;;
35126;SDS011;21300;52.006;5.798;2022-10-20T10:48:07;27.08;;;14.32;;
35126;SDS011;21300;52.006;5.798;2022-10-20T10:51:02;24.52;;;15.18;;
35126;SDS011;21300;52.006;5.798;2022-10-20T10:53:45;21.38;;;12.85;;
35126;SDS011;21300;52.006;5.798;2022-10-20T10:56:33;22.13;;;14.48;;
35126;SDS011;21300;52.006;5.798;2022-10-20T10:59:34;20.63;;;13.60;;
35126;SDS011;21300;52.006;5.798;2022-10-20T11:02:23;25.77;;;14.45;;
35126;SDS011;21300;52.006;5.798;2022-10-20T11:05:17;26.42;;;14.27;;
35126;SDS011;21300;52.006;5.798;2022-10-20T11:13:28;24.83;;;13.20;;
35126;SDS011;21300;52.006;5.798;2022-10-20T11:18:43;21.88;;;12.77;;
35126;SDS011;21300;52.006;5.798;2022-10-20T11:26:57;21.02;;;13.68;;
35126;SDS011;21300;52.006;5.798;2022-10-20T11:29:30;20.95;;;14.60;;
35126;SDS011;21300;52.006;5.798;2022-10-20T11:40:03;26.75;;;16.00;;
35126;SDS011;21300;52.006;5.798;2022-10-20T11:42:34;25.48;;;16.70;;
35126;SDS011;21300;52.006;5.798;2022-10-20T11:45:18;28.48;;;15.98;;
35126;SDS011;21300;52.006;5.798;2022-10-20T11:47:49;28.38;;;16.08;;
35126;SDS011;21300;52.006;5.798;2022-10-20T11:50:30;21.98;;;14.07;;
35126;SDS011;21300;52.006;5.798;2022-10-20T11:53:14;20.75;;;13.57;;
35126;SDS011;21300;52.006;5.798;2022-10-20T11:55:59;17.70;;;11.27;;
35126;SDS011;21300;52.006;5.798;2022-10-20T11:58:56;19.13;;;12.07;;
35126;SDS011;21300;52.006;5.798;2022-10-20T12:01:34;22.80;;;14.48;;
35126;SDS011;21300;52.006;5.798;2022-10-20T12:04:15;23.27;;;14.45;;
35126;SDS011;21300;52.006;5.798;2022-10-20T12:07:05;21.00;;;13.20;;
35126;SDS011;21300;52.006;5.798;2022-10-20T12:10:02;25.95;;;16.17;;
35126;SDS011;21300;52.006;5.798;2022-10-20T12:12:47;28.17;;;16.85;;
35126;SDS011;21300;52.006;5.798;2022-10-20T12:15:21;25.15;;;15.88;;
35126;SDS011;21300;52.006;5.798;2022-10-20T12:17:48;27.98;;;16.38;;
35126;SDS011;21300;52.006;5.798;2022-10-20T12:22:45;28.58;;;18.73;;
35126;SDS011;21300;52.006;5.798;2022-10-20T12:30:43;23.42;;;16.13;;
35126;SDS011;21300;52.006;5.798;2022-10-20T12:33:35;25.25;;;16.23;;
35126;SDS011;21300;52.006;5.798;2022-10-20T12:38:50;24.52;;;14.63;;
35126;SDS011;21300;52.006;5.798;2022-10-20T12:41:27;22.35;;;15.55;;
35126;SDS011;21300;52.006;5.798;2022-10-20T12:46:41;21.88;;;14.20;;
35126;SDS011;21300;52.006;5.798;2022-10-20T12:49:20;25.23;;;15.25;;
35126;SDS011;21300;52.006;5.798;2022-10-20T12:52:07;22.88;;;14.98;;
35126;SDS011;21300;52.006;5.798;2022-10-20T12:54:43;22.70;;;14.07;;
35126;SDS011;21300;52.006;5.798;2022-10-20T12:57:26;25.60;;;16.15;;
35126;SDS011;21300;52.006;5.798;2022-10-20T12:59:55;24.83;;;16.73;;
35126;SDS011;21300;52.006;5.798;2022-10-20T13:04:59;21.13;;;14.45;;
35126;SDS011;21300;52.006;5.798;2022-10-20T13:12:51;24.73;;;16.85;;
35126;SDS011;21300;52.006;5.798;2022-10-20T13:15:18;24.30;;;15.95;;
35126;SDS011;21300;52.006;5.798;2022-10-20T13:17:53;24.45;;;16.13;;
35126;SDS011;21300;52.006;5.798;2022-10-20T13:20:30;21.48;;;13.48;;
35126;SDS011;21300;52.006;5.798;2022-10-20T13:23:16;22.95;;;14.27;;
35126;SDS011;21300;52.006;5.798;2022-10-20T13:25:50;26.23;;;16.33;;
35126;SDS011;21300;52.006;5.798;2022-10-20T13:30:52;26.33;;;17.88;;
35126;SDS011;21300;52.006;5.798;2022-10-20T13:44:55;27.48;;;18.15;;
35126;SDS011;21300;52.006;5.798;2022-10-20T13:50:09;22.85;;;14.55;;
35126;SDS011;21300;52.006;5.798;2022-10-20T13:52:41;27.52;;;18.75;;
35126;SDS011;21300;52.006;5.798;2022-10-20T13:55:20;22.77;;;14.65;;
35126;SDS011;21300;52.006;5.798;2022-10-20T13:58:16;25.63;;;18.23;;
35126;SDS011;21300;52.006;5.798;2022-10-20T14:00:54;34.15;;;21.17;;
35126;SDS011;21300;52.006;5.798;2022-10-20T14:03:25;27.80;;;16.88;;
35126;SDS011;21300;52.006;5.798;2022-10-20T14:05:51;28.75;;;18.75;;
35126;SDS011;21300;52.006;5.798;2022-10-20T14:08:18;25.35;;;17.85;;
35126;SDS011;21300;52.006;5.798;2022-10-20T14:10:49;30.83;;;20.15;;
35126;SDS011;21300;52.006;5.798;2022-10-20T14:13:23;26.45;;;18.23;;
35126;SDS011;21300;52.006;5.798;2022-10-20T14:15:53;28.00;;;18.08;;
35126;SDS011;21300;52.006;5.798;2022-10-20T14:18:22;27.27;;;18.27;;
35126;SDS011;21300;52.006;5.798;2022-10-20T14:20:56;33.63;;;20.83;;
35126;SDS011;21300;52.006;5.798;2022-10-20T14:23:28;30.23;;;21.00;;
35126;SDS011;21300;52.006;5.798;2022-10-20T14:26:06;36.83;;;23.88;;
35126;SDS011;21300;52.006;5.798;2022-10-20T14:28:36;37.33;;;23.05;;
35126;SDS011;21300;52.006;5.798;2022-10-20T14:31:04;35.05;;;22.65;;
35126;SDS011;21300;52.006;5.798;2022-10-20T14:33:30;38.28;;;24.75;;
35126;SDS011;21300;52.006;5.798;2022-10-20T14:36:00;37.35;;;24.73;;
35126;SDS011;21300;52.006;5.798;2022-10-20T14:38:34;36.67;;;21.45;;
35126;SDS011;21300;52.006;5.798;2022-10-20T14:41:02;38.08;;;24.98;;
35126;SDS011;21300;52.006;5.798;2022-10-20T14:46:08;31.45;;;20.25;;
35126;SDS011;21300;52.006;5.798;2022-10-20T14:48:43;33.20;;;23.25;;
35126;SDS011;21300;52.006;5.798;2022-10-20T14:51:31;31.13;;;20.08;;
35126;SDS011;21300;52.006;5.798;2022-10-20T14:56:44;31.02;;;21.40;;
35126;SDS011;21300;52.006;5.798;2022-10-20T14:59:15;44.70;;;26.30;;
35126;SDS011;21300;52.006;5.798;2022-10-20T15:04:35;43.15;;;26.67;;
35126;SDS011;21300;52.006;5.798;2022-10-20T15:07:03;23.00;;;12.75;;
35126;SDS011;21300;52.006;5.798;2022-10-20T15:12:15;31.60;;;20.40;;
35126;SDS011;21300;52.006;5.798;2022-10-20T15:14:49;40.83;;;22.50;;
35126;SDS011;21300;52.006;5.798;2022-10-20T15:22:59;44.45;;;25.05;;
35126;SDS011;21300;52.006;5.798;2022-10-20T15:25:25;43.40;;;25.92;;
35126;SDS011;21300;52.006;5.798;2022-10-20T15:27:54;41.78;;;24.55;;
35126;SDS011;21300;52.006;5.798;2022-10-20T15:30:20;43.90;;;26.23;;
35126;SDS011;21300;52.006;5.798;2022-10-20T15:32:47;39.00;;;22.75;;
35126;SDS011;21300;52.006;5.798;2022-10-20T15:35:14;35.40;;;22.70;;
35126;SDS011;21300;52.006;5.798;2022-10-20T15:37:42;39.97;;;24.30;;
35126;SDS011;21300;52.006;5.798;2022-10-20T15:40:14;40.45;;;25.65;;
35126;SDS011;21300;52.006;5.798;2022-10-20T15:42:40;43.00;;;25.33;;
35126;SDS011;21300;52.006;5.798;2022-10-20T15:45:15;42.38;;;25.27;;
35126;SDS011;21300;52.006;5.798;2022-10-20T15:47:46;40.10;;;24.17;;
35126;SDS011;21300;52.006;5.798;2022-10-20T15:50:12;41.45;;;25.75;;
35126;SDS011;21300;52.006;5.798;2022-10-20T15:52:38;38.20;;;23.85;;
35126;SDS011;21300;52.006;5.798;2022-10-20T15:55:10;34.92;;;24.05;;
35126;SDS011;21300;52.006;5.798;2022-10-20T15:57:46;38.05;;;22.73;;
35126;SDS011;21300;52.006;5.798;2022-10-20T16:00:12;39.45;;;22.45;;
35126;SDS011;21300;52.006;5.798;2022-10-20T16:02:38;40.88;;;23.00;;
35126;SDS011;21300;52.006;5.798;2022-10-20T16:05:03;40.92;;;24.50;;
35126;SDS011;21300;52.006;5.798;2022-10-20T16:07:29;34.42;;;20.70;;
35126;SDS011;21300;52.006;5.798;2022-10-20T16:09:55;26.48;;;18.25;;
35126;SDS011;21300;52.006;5.798;2022-10-20T16:12:20;31.60;;;19.88;;
35126;SDS011;21300;52.006;5.798;2022-10-20T16:14:46;34.13;;;21.17;;
35126;SDS011;21300;52.006;5.798;2022-10-20T16:17:11;36.80;;;21.90;;
35126;SDS011;21300;52.006;5.798;2022-10-20T16:19:37;28.92;;;19.23;;
35126;SDS011;21300;52.006;5.798;2022-10-20T16:22:02;29.83;;;19.70;;
35126;SDS011;21300;52.006;5.798;2022-10-20T16:24:28;27.15;;;19.10;;
35126;SDS011;21300;52.006;5.798;2022-10-20T16:26:53;34.75;;;21.83;;
35126;SDS011;21300;52.006;5.798;2022-10-20T16:29:19;26.65;;;18.13;;
35126;SDS011;21300;52.006;5.798;2022-10-20T16:31:46;28.52;;;18.77;;
35126;SDS011;21300;52.006;5.798;2022-10-20T16:34:12;45.15;;;19.02;;
35126;SDS011;21300;52.006;5.798;2022-10-20T16:36:37;25.77;;;16.60;;
35126;SDS011;21300;52.006;5.798;2022-10-20T16:39:03;22.05;;;14.52;;
35126;SDS011;21300;52.006;5.798;2022-10-20T16:41:29;29.70;;;18.55;;